This is the latest recevied weather packets stored in our database for station/object K6FW. If no packets are shown the sender has not sent any weather packets the latest 10 day(s).
| Time | Temp. | Humidity | Pressure | Rain* | Wind** | Luminosity | Snow |
|---|---|---|---|---|---|---|---|
| 1777772755 | 22.78° C | 62% | 1010.1 hPa | 0 mm | - | 54 W/m² | - |
| 1777769175 | 23.89° C | 60% | 1010.3 hPa | 0 mm | - | 260 W/m² | - |
| 1777766457 | 25.56° C | 57% | 1010.2 hPa | 0 mm | - | 401 W/m² | - |
| 1777761957 | 26.67° C | 51% | 1010.8 hPa | 0 mm | - | 694 W/m² | - |
| 1777755663 | 26.11° C | 54% | 1012 hPa | 0 mm | - | 789 W/m² | - |
| 1777752956 | 26.11° C | 56% | 1012.3 hPa | 0 mm | - | 868 W/m² | - |
| 1777746662 | 20.56° C | 72% | 1014.1 hPa | 0 mm | - | 914 W/m² | - |
| 1777743058 | 17.78° C | 83% | 1015 hPa | 0 mm | - | 504 W/m² | - |
| 1777731373 | 14.44° C | 90% | 1015.2 hPa | 0 mm | - | 40 W/m² | - |
| 1777728663 | 14.44° C | 90% | 1014.5 hPa | 0 mm | - | 9 W/m² | - |
| 1777723262 | 13.33° C | 88% | 1013.7 hPa | 0 mm | - | 0 W/m² | - |
| 1777721457 | 13.89° C | 88% | 1013.5 hPa | 0 mm | - | 0 W/m² | - |
| 1777706157 | 15.56° C | 82% | 1014.2 hPa | 0 mm | - | 0 W/m² | - |
| 1777704358 | 16.11° C | 82% | 1014.1 hPa | 0 mm | - | 0 W/m² | - |
| 1777702558 | 16.11° C | 81% | 1014 hPa | 0 mm | - | 0 W/m² | - |
| 1777698962 | 16.67° C | 79% | 1014.1 hPa | 0 mm | - | 0 W/m² | - |
| 1777698059 | 17.22° C | 79% | 1014 hPa | 0 mm | - | 0 W/m² | - |
| 1777697160 | 17.22° C | 79% | 1013.7 hPa | 0 mm | - | 0 W/m² | - |
| 1777691760 | 18.89° C | 72% | 1012.7 hPa | 0 mm | - | 0 W/m² | - |
| 1777680959 | 25° C | 55% | 1011.3 hPa | 0 mm | - | 301 W/m² | - |
| 1777678266 | 26.67° C | 50% | 1011.2 hPa | 0 mm | - | 485 W/m² | - |
| 1777677370 | 27.22° C | 49% | 1011 hPa | 0 mm | - | 594 W/m² | - |
| 1777662960 | 21.11° C | 66% | 1014.1 hPa | 0 mm | - | 937 W/m² | - |
| 1777660260 | 18.89° C | 74% | 1014.9 hPa | 0 mm | - | 824 W/m² | - |
| 1777659359 | 18.33° C | 75% | 1015.1 hPa | 0 mm | - | 513 W/m² | - |
* Rain latest hour (hover to see other rain measurements)
** Current wind speed in m/s (hover to see current wind gust speed)